VGEGVYMD

Guest
Details From VGEG - Shah Amanat Intl
To VYMD - Mandalay Intl
Flight Number -
Tags Generated
Created
Modified
Stats Distance 235 nm / 435 km
Max Altitude 0 ft / 0 m
Waypoints 3
Social Downloads 0
Likes 0
Share VATSIM

Download

Looking for another format? Having issues loading an existing format? Contact us
Advertisement - Login to hide

Notes

Generated

Route

VGEG MIA VYMD

ID Type Via Altitude Latitude Longitude Leg Dist Tot Dist Heading (true) Name
O VGEG APT - 0 ft / 0 m 22.24081˚ 91.80265˚ - 0 nm - -
MIA VOR - 0 ft / 0 m 21.71094˚ 95.97475˚ 234 nm 234 nm 97° / 99° MANDALAY VOR-DME
O VYMD APT - 0 ft / 0 m 21.72002˚ 95.97441˚ 0 nm 235 nm 358° / 358° -

Altitude Profile

Advertisement - Login to hide

Weather


0- 5 10 15 20 25 30 35+ Temperature / ° C

Clouds and Precipitation
Forecast for 2017-12-11 12:00 UTC. Updated 24 minutes ago

Ground ~20,000 ft ~40,000 ft Winds

VGEG

Details ICAO VGEG (CGP)
Name SHAH AMANAT INTL
Region Bangladesh
Timezone Asia/Dhaka (UTC+6.0)
Stats Elevation 12 ft / 4 m (AMSL)
Location 22.249610° 91.813286°
Runways 1
Magnetic Variation 0.396° W

METAR

VGEG 110700Z 27007KT 3100 SCT016 FEW028CB OVC090 25/24 Q1011 TEMPO RA

Decode

TAF

TAF TAF VGEG 102300Z 1100/1206 00000KT 2800BR SCT 013 BECMG 1103/1105 27008 KT 4500HZ FEW 018 BECMG 1112/1114 30008KT 4000HZ FEW 018 BECMG 1118/1120 00000KT 3500HZ NSC TEMPO 1123/1203 00000KT 0900FG BKN 007 BECMG 1204/1206 30008KT 4500HZ NSC

Decode

Departure Runways

ID Width Length Bearing (true) Bearing (mag) Surface Threshold Offset Overrun Length
05 150 ft / 46 m 9,633 ft / 2,936 m 48.21° 48.61° Asphalt 0 ft / 0 m 200 ft / 61 m
23 150 ft / 46 m 9,633 ft / 2,936 m 228.21° 228.61° Asphalt 0 ft / 0 m 1,194 ft / 364 m

VYMD

Details ICAO VYMD (MDL)
Name MANDALAY INTL
Region Myanmar
Timezone Asia/Rangoon (UTC+6.5)
Stats Elevation 300 ft / 91 m (AMSL)
Location 21.701010° 95.977795°
Runways 1
Magnetic Variation 0.621° W

METAR

VYMD 110730Z 02002KT 6000 BKN015 FEW018CB OVC090 25/21 Q1012

Decode

TAF

TAF VYMD 110500Z 1106/1206 32003KT 6000 BKN018 FEW020CB TEMPO 1106/ 1112 34005KT 5000 -RA BKN012 FEW018CB OVC080

Decode

Destination Runways

ID Width Length Bearing (true) Bearing (mag) Surface Threshold Offset Overrun Length
17 200 ft / 61 m 14,062 ft / 4,286 m 170.60° 171.22° Concrete 0 ft / 0 m 200 ft / 61 m
35 200 ft / 61 m 14,062 ft / 4,286 m 350.60° 351.22° Concrete 0 ft / 0 m 200 ft / 61 m

Approach Navaids

Runway Type Ident Frequency Range Bearing (true) Bearing (mag) Slope Elevation
17 Localiser IMIA 110.50 MHz 18 nm / 33 km 170.62° 171.24° - 300 ft / 91 m (AMSL)
17 Glidescope IMIA 110.50 MHz 10 nm / 19 km 170.60° 171.22° 3.00° 286 ft / 87 m (AMSL)
17 DME IMIA 110.50 MHz 18 nm / 33 km - - - 300 ft / 91 m (AMSL)

Popular Alternatives